createdAt,value
2024-05-09T00:00:29.914Z,9.3731
2024-05-09T00:01:23.495Z,9.3969
2024-05-09T00:02:25.312Z,9.4319
2024-05-09T00:03:27.051Z,9.5087
2024-05-09T00:04:28.728Z,9.5131
2024-05-09T00:05:30.608Z,9.4720
2024-05-09T00:06:32.320Z,9.3833
2024-05-09T00:07:34.060Z,9.4007
2024-05-09T00:08:35.879Z,9.3616
2024-05-09T00:09:37.882Z,9.3846
2024-05-09T00:10:40.657Z,9.3696
2024-05-09T00:11:40.678Z,9.3660
2024-05-09T00:12:42.439Z,9.3850
2024-05-09T00:13:44.338Z,9.3649
2024-05-09T00:14:45.960Z,9.3839
2024-05-09T00:15:47.589Z,9.3565
2024-05-09T00:16:49.312Z,9.4430
2024-05-09T00:17:51.634Z,9.4417
2024-05-09T00:18:54.297Z,9.4422
2024-05-09T00:19:56.166Z,9.4535
2024-05-09T00:20:57.942Z,9.4740
2024-05-09T00:21:59.640Z,9.4802
2024-05-09T00:23:01.458Z,9.4356
2024-05-09T00:24:03.233Z,9.4359
2024-05-09T00:25:04.871Z,9.3941
2024-05-09T00:26:06.634Z,9.4184
2024-05-09T00:27:08.945Z,9.3607
2024-05-09T00:28:09.131Z,9.3568
2024-05-09T00:29:10.778Z,9.3246
2024-05-09T00:30:17.824Z,9.3021
2024-05-09T00:31:14.527Z,9.2826
2024-05-09T00:32:16.362Z,9.3067
2024-05-09T00:33:18.377Z,9.2605
2024-05-09T00:34:20.327Z,9.2384
2024-05-09T00:35:22.266Z,9.1819
2024-05-09T00:36:24.240Z,9.2412
2024-05-09T00:37:26.051Z,9.2703
2024-05-09T00:38:27.868Z,9.2106
2024-05-09T00:39:29.614Z,9.1677
2024-05-09T00:40:38.586Z,9.1321
2024-05-09T00:41:33.413Z,9.1476
2024-05-09T00:42:35.178Z,9.1304
2024-05-09T00:43:36.948Z,9.1299
2024-05-09T00:44:38.662Z,9.1534
2024-05-09T00:45:40.423Z,9.1634
2024-05-09T00:46:42.141Z,9.2693
2024-05-09T00:47:44.441Z,9.2664
2024-05-09T00:48:46.464Z,9.3348
2024-05-09T00:49:48.497Z,9.3667
2024-05-09T00:50:50.305Z,9.3843
2024-05-09T00:51:52.211Z,9.3992
2024-05-09T00:52:53.846Z,9.4323
2024-05-09T00:53:55.938Z,9.4422
2024-05-09T00:54:57.638Z,9.4441
2024-05-09T00:55:59.404Z,9.5019
2024-05-09T00:57:01.057Z,9.5319
2024-05-09T00:58:02.881Z,9.5445
2024-05-09T00:59:04.672Z,9.5225
2024-05-09T01:00:12.079Z,9.5765
2024-05-09T01:01:08.561Z,9.6369
2024-05-09T01:02:10.440Z,9.6161
2024-05-09T01:03:13.904Z,9.6389
2024-05-09T01:04:13.581Z,9.6600
2024-05-09T01:05:15.394Z,9.7210
2024-05-09T01:06:17.269Z,9.6978
2024-05-09T01:07:19.051Z,9.7007
2024-05-09T01:08:21.045Z,9.7155
2024-05-09T01:09:22.911Z,9.7388
2024-05-09T01:10:32.210Z,9.7667
2024-05-09T01:11:26.917Z,9.7938
2024-05-09T01:12:28.846Z,9.8086
2024-05-09T01:13:30.538Z,9.8182
2024-05-09T01:14:32.444Z,9.8379
2024-05-09T01:15:34.215Z,9.8521
2024-05-09T01:16:36.162Z,9.8381
2024-05-09T01:17:38.082Z,9.8452
2024-05-09T01:18:40.032Z,9.8435
2024-05-09T01:19:41.941Z,9.8691
2024-05-09T01:20:45.313Z,9.8674
2024-05-09T01:21:44.676Z,9.8610
2024-05-09T01:22:46.423Z,9.8583
2024-05-09T01:23:48.115Z,9.8503
2024-05-09T01:24:49.977Z,9.8364
2024-05-09T01:25:51.679Z,9.8706
2024-05-09T01:26:53.472Z,9.9196
2024-05-09T01:27:55.223Z,9.9039
2024-05-09T01:28:56.972Z,9.9151
2024-05-09T01:29:58.748Z,9.9128
2024-05-09T01:31:00.464Z,9.9147
2024-05-09T01:32:02.320Z,9.9296
2024-05-09T01:33:04.957Z,9.9141
2024-05-09T01:34:04.937Z,9.9037
2024-05-09T01:35:06.653Z,9.9071
2024-05-09T01:36:08.594Z,9.9143
2024-05-09T01:37:10.363Z,9.9084
2024-05-09T01:38:12.312Z,9.9344
2024-05-09T01:39:14.209Z,9.9288
2024-05-09T01:40:21.961Z,9.9375
2024-05-09T01:41:18.078Z,9.9478
2024-05-09T01:42:19.782Z,9.9568
2024-05-09T01:43:21.590Z,9.9770
2024-05-09T01:44:23.412Z,9.9657
2024-05-09T01:45:25.116Z,9.9867
2024-05-09T01:46:26.846Z,9.9901
2024-05-09T01:47:28.632Z,9.9821
2024-05-09T01:48:30.463Z,9.9912
2024-05-09T01:49:32.277Z,9.9976
2024-05-09T01:50:39.108Z,10.0180
2024-05-09T01:51:36.288Z,10.0005
2024-05-09T01:52:38.030Z,10.0148
2024-05-09T01:53:39.856Z,10.0377
2024-05-09T01:54:41.617Z,10.0690
2024-05-09T01:55:43.591Z,10.0513
2024-05-09T01:56:45.406Z,10.0612
2024-05-09T01:57:47.157Z,10.0615
2024-05-09T01:58:48.926Z,10.0610
2024-05-09T01:59:50.692Z,10.0533
2024-05-09T02:00:52.616Z,10.0564
2024-05-09T02:01:57.004Z,10.0545
2024-05-09T02:02:56.921Z,10.0444
2024-05-09T02:03:59.065Z,10.0542
2024-05-09T02:05:01.239Z,10.0672
2024-05-09T02:06:03.162Z,10.0889
2024-05-09T02:07:04.930Z,10.0891
2024-05-09T02:08:06.717Z,10.0951
2024-05-09T02:09:08.370Z,10.0797
2024-05-09T02:10:16.533Z,10.0891
2024-05-09T02:11:12.442Z,10.0941
2024-05-09T02:12:14.608Z,10.1081
2024-05-09T02:13:16.729Z,10.1231
2024-05-09T02:14:18.552Z,10.0917
2024-05-09T02:15:20.287Z,10.0942
2024-05-09T02:16:22.044Z,10.0816
2024-05-09T02:17:23.908Z,10.0912
2024-05-09T02:18:25.807Z,10.0883
2024-05-09T02:19:27.710Z,10.0983
2024-05-09T02:20:34.185Z,10.1178
2024-05-09T02:21:31.831Z,10.0894
2024-05-09T02:22:33.569Z,10.1252
2024-05-09T02:23:35.353Z,10.1312
2024-05-09T02:24:37.137Z,10.1399
2024-05-09T02:25:38.891Z,10.1471
2024-05-09T02:26:40.752Z,10.1561
2024-05-09T02:27:42.458Z,10.1490
2024-05-09T02:28:44.161Z,10.1287
2024-05-09T02:29:45.825Z,10.0964
2024-05-09T02:30:47.560Z,10.1219
2024-05-09T02:31:49.542Z,10.1207
2024-05-09T02:32:51.450Z,10.1316
2024-05-09T02:33:53.438Z,10.1162
2024-05-09T02:34:55.393Z,10.0988
2024-05-09T02:35:57.083Z,10.1056
2024-05-09T02:36:58.910Z,10.1268
2024-05-09T02:38:00.953Z,10.1094
2024-05-09T02:39:02.740Z,10.1005
2024-05-09T02:40:05.648Z,10.1124
2024-05-09T02:41:04.770Z,10.1101
2024-05-09T02:42:06.455Z,10.1002
2024-05-09T02:43:09.314Z,10.0775
2024-05-09T02:44:09.750Z,10.0857
2024-05-09T02:45:11.698Z,10.1028
2024-05-09T02:46:13.411Z,10.0871
2024-05-09T02:47:15.248Z,10.0780
2024-05-09T02:48:17.056Z,10.0635
2024-05-09T02:49:19.112Z,10.0665
2024-05-09T02:50:29.712Z,10.0602
2024-05-09T02:51:23.179Z,10.0448
2024-05-09T02:52:24.921Z,10.0390
2024-05-09T02:53:26.819Z,10.0385
2024-05-09T02:54:28.538Z,10.0364
2024-05-09T02:55:30.254Z,10.0207
2024-05-09T02:56:32.005Z,10.0106
2024-05-09T02:57:33.781Z,9.9974
2024-05-09T02:58:35.485Z,10.0038
2024-05-09T02:59:37.326Z,10.0080
2024-05-09T03:00:41.505Z,10.0038
2024-05-09T03:01:39.332Z,10.0070
2024-05-09T03:02:41.117Z,10.0079
2024-05-09T03:03:43.109Z,9.9966
2024-05-09T03:04:45.175Z,9.9879
2024-05-09T03:05:47.147Z,9.9845
2024-05-09T03:06:48.949Z,10.0156
2024-05-09T03:07:50.746Z,9.9913
2024-05-09T03:08:52.511Z,9.9953
2024-05-09T03:09:54.220Z,9.9737
2024-05-09T03:10:56.139Z,9.9798
2024-05-09T03:11:57.951Z,9.9613
2024-05-09T03:12:59.815Z,9.9778
2024-05-09T03:14:01.574Z,9.9908
2024-05-09T03:15:03.324Z,9.9813
2024-05-09T03:16:05.126Z,9.9954
2024-05-09T03:17:07.018Z,9.9870
2024-05-09T03:18:08.885Z,9.9887
2024-05-09T03:19:11.018Z,9.9720
2024-05-09T03:20:20.483Z,9.9873
2024-05-09T03:21:14.974Z,9.9895
2024-05-09T03:22:16.612Z,9.9835
2024-05-09T03:23:18.428Z,9.9907
2024-05-09T03:24:20.137Z,10.0050
2024-05-09T03:25:21.872Z,10.0288
2024-05-09T03:26:23.804Z,10.0216
2024-05-09T03:27:25.580Z,10.0108
2024-05-09T03:28:27.248Z,9.9889
2024-05-09T03:29:29.009Z,9.9925
2024-05-09T03:30:39.419Z,10.0010
2024-05-09T03:31:32.855Z,9.9956
2024-05-09T03:32:34.688Z,9.9771
2024-05-09T03:33:36.860Z,9.9738
2024-05-09T03:34:39.023Z,9.9725
2024-05-09T03:35:40.936Z,9.9643
2024-05-09T03:36:42.727Z,9.9755
2024-05-09T03:37:44.465Z,9.9866
2024-05-09T03:38:46.260Z,9.9918
2024-05-09T03:39:47.927Z,9.9790
2024-05-09T03:40:50.371Z,9.9759
2024-05-09T03:41:50.051Z,9.9657
2024-05-09T03:42:51.818Z,9.9747
2024-05-09T03:43:53.589Z,9.9699
2024-05-09T03:44:55.309Z,9.9594
2024-05-09T03:45:57.044Z,9.9838
2024-05-09T03:46:58.972Z,10.0022
2024-05-09T03:48:00.816Z,9.9985
2024-05-09T03:49:02.787Z,9.9829
2024-05-09T03:50:05.608Z,9.9948
2024-05-09T03:51:05.037Z,9.9859
2024-05-09T03:52:06.782Z,10.0037
2024-05-09T03:53:08.582Z,10.0022
2024-05-09T03:54:10.223Z,9.9915
2024-05-09T03:55:12.042Z,9.9862
2024-05-09T03:56:13.777Z,9.9796
2024-05-09T03:57:15.549Z,9.9868
2024-05-09T03:58:17.261Z,9.9745
2024-05-09T03:59:19.060Z,9.9656
2024-05-09T04:00:30.463Z,9.9771
2024-05-09T04:01:22.876Z,9.9723
2024-05-09T04:02:24.641Z,9.9696
2024-05-09T04:03:26.878Z,9.9692
2024-05-09T04:04:28.902Z,9.9803
2024-05-09T04:05:30.918Z,9.9624
2024-05-09T04:06:32.973Z,9.9705
2024-05-09T04:07:34.698Z,9.9819
2024-05-09T04:08:36.605Z,9.9886
2024-05-09T04:09:38.544Z,10.0028
2024-05-09T04:10:40.317Z,10.0093
2024-05-09T04:11:42.140Z,10.0167
2024-05-09T04:12:43.855Z,10.0237
2024-05-09T04:13:45.636Z,10.0568
2024-05-09T04:14:47.429Z,10.0783
2024-05-09T04:15:49.171Z,10.1135
2024-05-09T04:16:50.935Z,10.1246
2024-05-09T04:17:52.877Z,10.1240
2024-05-09T04:18:54.834Z,10.1144
2024-05-09T04:19:56.574Z,10.1261
2024-05-09T04:20:58.328Z,10.1293
2024-05-09T04:22:00.052Z,10.1002
2024-05-09T04:23:01.811Z,10.1119
2024-05-09T04:24:03.597Z,10.1143
2024-05-09T04:25:05.290Z,10.1095
2024-05-09T04:26:07.068Z,10.1126
2024-05-09T04:27:08.760Z,10.1206
2024-05-09T04:28:10.485Z,10.1488
2024-05-09T04:29:12.443Z,10.1511
2024-05-09T04:30:21.702Z,10.1527
2024-05-09T04:31:16.289Z,10.1535
2024-05-09T04:32:18.037Z,10.1496
2024-05-09T04:33:20.345Z,10.1487
2024-05-09T04:34:22.671Z,10.1737
2024-05-09T04:35:24.767Z,10.1658
2024-05-09T04:36:26.594Z,10.1774
2024-05-09T04:37:28.308Z,10.1509
2024-05-09T04:38:30.028Z,10.1777
2024-05-09T04:39:31.855Z,10.1715
2024-05-09T04:40:36.199Z,10.1981
2024-05-09T04:41:36.356Z,10.1821
2024-05-09T04:42:38.126Z,10.2114
2024-05-09T04:43:39.810Z,10.2123
2024-05-09T04:44:41.657Z,10.1965
2024-05-09T04:45:43.364Z,10.2042
2024-05-09T04:46:45.177Z,10.2387
2024-05-09T04:47:47.067Z,10.2747
2024-05-09T04:48:49.101Z,10.2678
2024-05-09T04:49:51.035Z,10.2668
2024-05-09T04:50:52.840Z,10.2803
2024-05-09T04:51:54.603Z,10.2923
2024-05-09T04:52:56.387Z,10.2921
2024-05-09T04:53:58.106Z,10.2781
2024-05-09T04:54:59.899Z,10.2869
2024-05-09T04:56:01.672Z,10.2826
2024-05-09T04:57:03.406Z,10.2984
2024-05-09T04:58:05.082Z,10.3204
2024-05-09T04:59:06.972Z,10.3133
2024-05-09T05:00:14.611Z,10.3213
2024-05-09T05:01:10.849Z,10.3099
2024-05-09T05:02:12.821Z,10.3299
2024-05-09T05:03:16.029Z,10.3185
2024-05-09T05:04:15.855Z,10.3597
2024-05-09T05:05:17.902Z,10.3577
2024-05-09T05:06:19.824Z,10.3540
2024-05-09T05:07:21.574Z,10.3729
2024-05-09T05:08:23.417Z,10.3660
2024-05-09T05:09:25.128Z,10.3314
2024-05-09T05:10:33.592Z,10.3529
2024-05-09T05:11:29.145Z,10.3514
2024-05-09T05:12:31.163Z,10.3742
2024-05-09T05:13:33.143Z,10.3972
2024-05-09T05:14:34.954Z,10.4039
2024-05-09T05:15:36.771Z,10.4195
2024-05-09T05:16:38.514Z,10.4342
2024-05-09T05:17:40.555Z,10.4069
2024-05-09T05:18:42.475Z,10.4729
2024-05-09T05:19:44.543Z,10.4889
2024-05-09T05:20:46.531Z,10.5000
2024-05-09T05:21:48.395Z,10.5280
2024-05-09T05:22:50.246Z,10.6098
2024-05-09T05:23:52.049Z,10.5857
2024-05-09T05:24:53.841Z,10.5705
2024-05-09T05:25:55.991Z,10.5706
2024-05-09T05:26:57.937Z,10.5870
2024-05-09T05:27:59.688Z,10.6158
2024-05-09T05:29:01.528Z,10.6016
2024-05-09T05:30:03.576Z,10.6375
2024-05-09T05:31:04.764Z,10.5886
2024-05-09T05:32:06.652Z,10.5640
2024-05-09T05:33:08.585Z,10.6151
2024-05-09T05:34:10.485Z,10.5717
2024-05-09T05:35:12.340Z,10.5461
2024-05-09T05:36:14.099Z,10.5709
2024-05-09T05:37:15.912Z,10.5984
2024-05-09T05:38:17.968Z,10.5606
2024-05-09T05:39:19.894Z,10.6183
2024-05-09T05:40:28.354Z,10.6208
2024-05-09T05:41:23.850Z,10.6279
2024-05-09T05:42:25.603Z,10.6264
2024-05-09T05:43:27.468Z,10.6591
2024-05-09T05:44:29.299Z,10.6952
2024-05-09T05:45:31.118Z,10.7213
2024-05-09T05:46:32.879Z,10.7680
2024-05-09T05:47:34.971Z,10.8215
2024-05-09T05:48:37.145Z,10.8045
2024-05-09T05:49:39.096Z,10.7902
2024-05-09T05:50:41.072Z,10.7475
2024-05-09T05:51:42.840Z,10.7749
2024-05-09T05:52:44.645Z,10.7636
2024-05-09T05:53:46.575Z,10.7482
2024-05-09T05:54:48.363Z,10.7152
2024-05-09T05:55:50.206Z,10.7044
2024-05-09T05:56:52.056Z,10.7448
2024-05-09T05:57:53.853Z,10.7283
2024-05-09T05:58:55.660Z,10.7573
2024-05-09T05:59:57.429Z,10.7306
2024-05-09T06:00:59.230Z,10.7391
2024-05-09T06:02:01.193Z,10.6966
2024-05-09T06:03:03.143Z,10.7268
2024-05-09T06:04:05.076Z,10.6974
2024-05-09T06:05:06.872Z,10.7536
2024-05-09T06:06:08.631Z,10.7674
2024-05-09T06:07:10.417Z,10.8332
2024-05-09T06:08:12.392Z,10.8670
2024-05-09T06:09:14.326Z,10.9272
2024-05-09T06:10:21.466Z,10.9742
2024-05-09T06:11:18.321Z,11.0788
2024-05-09T06:12:20.165Z,11.0200
2024-05-09T06:13:21.995Z,11.0055
2024-05-09T06:14:23.852Z,11.0932
2024-05-09T06:15:25.861Z,11.0898
2024-05-09T06:16:27.614Z,11.1994
2024-05-09T06:17:29.493Z,11.1463
2024-05-09T06:18:31.502Z,11.2461
2024-05-09T06:19:33.702Z,11.3461
2024-05-09T06:20:37.903Z,11.1986
2024-05-09T06:21:37.823Z,11.2835
2024-05-09T06:22:39.603Z,11.3432
2024-05-09T06:23:41.363Z,11.4873
2024-05-09T06:24:43.178Z,11.4858
2024-05-09T06:25:45.099Z,11.6808
2024-05-09T06:26:46.868Z,11.7845
2024-05-09T06:27:48.669Z,11.7105
2024-05-09T06:28:50.523Z,11.7990
2024-05-09T06:29:52.286Z,11.7932
2024-05-09T06:30:54.058Z,11.8619
2024-05-09T06:31:59.523Z,11.8719
2024-05-09T06:32:56.367Z,12.0851
2024-05-09T06:33:58.382Z,12.4956
2024-05-09T06:35:00.296Z,12.4715
2024-05-09T06:36:02.050Z,12.2886
2024-05-09T06:37:03.816Z,12.3780
2024-05-09T06:38:05.696Z,12.5634
2024-05-09T06:39:07.517Z,12.6632
2024-05-09T06:40:10.081Z,12.5665
2024-05-09T06:41:09.317Z,12.8027
2024-05-09T06:42:11.077Z,12.4910
2024-05-09T06:43:12.970Z,12.5597
2024-05-09T06:44:14.793Z,12.5587
2024-05-09T06:45:16.587Z,12.5594
2024-05-09T06:46:18.386Z,12.5818
2024-05-09T06:47:20.358Z,12.5348
2024-05-09T06:48:22.944Z,12.5137
2024-05-09T06:49:22.475Z,12.7902
2024-05-09T06:50:28.146Z,13.1587
2024-05-09T06:51:26.480Z,13.1718
2024-05-09T06:52:28.307Z,13.2884
2024-05-09T06:53:30.105Z,13.1101
2024-05-09T06:54:31.890Z,12.8223
2024-05-09T06:55:33.742Z,12.6309
2024-05-09T06:56:35.575Z,12.5786
2024-05-09T06:57:39.179Z,12.5621
2024-05-09T06:58:37.698Z,12.4062
2024-05-09T06:59:39.484Z,12.5207
2024-05-09T07:00:42.216Z,12.3568
2024-05-09T07:01:41.524Z,12.2562
2024-05-09T07:02:43.365Z,12.3045
2024-05-09T07:03:45.238Z,12.2637
2024-05-09T07:04:47.199Z,12.2035
2024-05-09T07:05:49.865Z,12.2168
2024-05-09T07:06:49.127Z,12.1534
2024-05-09T07:07:50.935Z,12.2128
2024-05-09T07:08:52.863Z,12.0352
2024-05-09T07:09:54.666Z,12.0706
2024-05-09T07:10:56.506Z,12.0650
2024-05-09T07:11:58.370Z,12.0621
2024-05-09T07:13:00.180Z,12.0156
2024-05-09T07:14:02.001Z,12.0082
2024-05-09T07:15:03.814Z,12.0068
2024-05-09T07:16:05.591Z,11.9602
2024-05-09T07:17:07.521Z,11.8907
2024-05-09T07:18:09.524Z,11.8434
2024-05-09T07:19:11.612Z,11.8818
2024-05-09T07:20:23.027Z,11.8125
2024-05-09T07:21:15.776Z,11.9457
2024-05-09T07:22:17.653Z,11.9906
2024-05-09T07:23:19.655Z,12.0606
2024-05-09T07:24:21.725Z,12.1320
2024-05-09T07:25:23.521Z,12.1070
2024-05-09T07:26:25.385Z,12.2896
2024-05-09T07:27:27.207Z,12.4715
2024-05-09T07:28:28.968Z,12.5166
2024-05-09T07:29:30.847Z,12.5701
2024-05-09T07:30:34.399Z,12.7483
2024-05-09T07:31:34.233Z,12.8414
2024-05-09T07:32:36.141Z,13.0360
2024-05-09T07:33:37.957Z,12.8322
2024-05-09T07:34:39.841Z,12.6785
2024-05-09T07:35:41.669Z,12.7275
2024-05-09T07:36:43.393Z,12.4837
2024-05-09T07:37:45.218Z,12.5498
2024-05-09T07:38:46.997Z,12.4157
2024-05-09T07:39:48.795Z,12.4291
2024-05-09T07:40:50.637Z,12.2710
2024-05-09T07:41:52.522Z,12.3782
2024-05-09T07:42:54.290Z,12.3599
2024-05-09T07:43:56.089Z,12.2980
2024-05-09T07:45:14.551Z,12.4177
2024-05-09T07:46:28.567Z,12.4495
2024-05-09T07:53:29.268Z,12.6033
2024-05-09T07:53:37.744Z,12.7296
2024-05-09T07:54:17.031Z,12.7059
2024-05-09T07:55:19.220Z,12.6863
2024-05-09T07:56:22.831Z,12.7020
2024-05-09T07:57:23.109Z,12.8021
2024-05-09T07:58:24.898Z,12.9323
2024-05-09T07:59:26.656Z,12.8468
2024-05-09T08:00:31.516Z,12.8462
2024-05-09T08:01:28.882Z,12.9579
2024-05-09T08:02:30.841Z,13.2340
2024-05-09T08:03:32.976Z,13.1550
2024-05-09T08:04:35.015Z,13.1039
2024-05-09T08:05:37.095Z,13.3337
2024-05-09T08:06:39.097Z,13.2648
2024-05-09T08:07:40.952Z,13.3961
2024-05-09T08:08:42.799Z,13.6931
2024-05-09T08:09:44.665Z,13.5519
2024-05-09T08:10:46.602Z,13.3118
2024-05-09T08:11:48.490Z,13.4296
2024-05-09T08:12:50.487Z,13.5246
2024-05-09T08:13:52.246Z,13.7549
2024-05-09T08:14:54.086Z,13.3304
2024-05-09T08:15:55.945Z,13.1157
2024-05-09T08:16:57.763Z,13.0381
2024-05-09T08:17:59.783Z,13.0750
2024-05-09T08:19:01.731Z,13.2154
2024-05-09T08:20:05.432Z,13.5400
2024-05-09T08:21:04.678Z,13.4943
2024-05-09T08:22:06.794Z,13.0907
2024-05-09T08:23:08.754Z,13.5298
2024-05-09T08:24:10.723Z,13.4834
2024-05-09T08:25:14.161Z,13.2892
2024-05-09T08:26:13.586Z,13.1355
2024-05-09T08:27:15.411Z,13.1218
2024-05-09T08:28:17.388Z,13.1134
2024-05-09T08:29:19.264Z,12.9646
2024-05-09T08:30:25.482Z,12.9063
2024-05-09T08:31:23.554Z,12.9365
2024-05-09T08:32:25.402Z,12.7648
2024-05-09T08:33:27.396Z,12.7565
2024-05-09T08:34:29.480Z,12.7905
2024-05-09T08:35:31.484Z,12.9029
2024-05-09T08:36:33.554Z,12.8607
2024-05-09T08:37:38.783Z,12.7857
2024-05-09T08:38:37.443Z,12.8464
2024-05-09T08:39:39.267Z,12.9256
2024-05-09T08:40:41.259Z,13.1299
2024-05-09T08:41:43.181Z,13.1538
2024-05-09T08:42:45.040Z,13.4762
2024-05-09T08:43:46.910Z,13.4219
2024-05-09T08:44:48.829Z,13.4543
2024-05-09T08:45:50.737Z,13.6671
2024-05-09T08:46:52.533Z,13.5689
2024-05-09T08:47:54.438Z,13.9105
2024-05-09T08:48:56.351Z,13.9471
2024-05-09T08:49:58.280Z,13.9316
2024-05-09T08:51:00.161Z,14.0110
2024-05-09T08:52:02.059Z,13.7532
2024-05-09T08:53:03.888Z,14.1511
2024-05-09T08:54:05.696Z,13.8894
2024-05-09T08:55:07.617Z,13.8107
2024-05-09T08:56:09.440Z,13.6089
2024-05-09T08:57:11.229Z,13.5535
2024-05-09T08:58:13.094Z,13.8538
2024-05-09T08:59:15.114Z,13.5416
2024-05-09T09:00:25.603Z,13.6009
2024-05-09T09:01:19.327Z,13.8237
2024-05-09T09:02:21.492Z,14.0115
2024-05-09T09:03:23.528Z,14.2945
2024-05-09T09:04:25.557Z,14.0875
2024-05-09T09:05:27.792Z,14.0830
2024-05-09T09:06:29.682Z,14.2887
2024-05-09T09:07:31.635Z,13.7317
2024-05-09T09:08:33.548Z,13.2776
2024-05-09T09:09:35.360Z,13.2930
2024-05-09T09:10:37.251Z,13.0555
2024-05-09T09:11:38.998Z,13.1145
2024-05-09T09:12:40.788Z,13.1451
2024-05-09T09:13:42.635Z,13.1925
2024-05-09T09:14:44.476Z,13.3149
2024-05-09T09:15:46.387Z,13.3485
2024-05-09T09:16:48.165Z,13.4546
2024-05-09T09:17:50.067Z,13.5818
2024-05-09T09:18:52.477Z,13.6182
2024-05-09T09:19:54.822Z,13.5818
2024-05-09T09:20:56.802Z,13.6777
2024-05-09T09:21:58.558Z,13.4502
2024-05-09T09:23:00.613Z,13.5490
2024-05-09T09:24:02.456Z,13.4781
2024-05-09T09:25:04.394Z,13.4607
2024-05-09T09:26:06.288Z,13.5198
2024-05-09T09:27:08.051Z,13.5782
2024-05-09T09:28:10.129Z,13.9036
2024-05-09T09:29:12.004Z,14.1352
2024-05-09T09:30:27.680Z,14.4762
2024-05-09T09:31:16.122Z,14.6852
2024-05-09T09:32:18.110Z,14.1693
2024-05-09T09:33:19.994Z,14.7008
2024-05-09T09:34:22.040Z,14.5076
2024-05-09T09:35:23.852Z,14.5485
2024-05-09T09:36:25.809Z,15.0154
2024-05-09T09:37:27.608Z,14.9208
2024-05-09T09:38:29.651Z,14.7242
2024-05-09T09:39:31.520Z,14.5550
2024-05-09T09:40:35.902Z,14.5832
2024-05-09T09:41:35.590Z,14.5093
2024-05-09T09:42:37.439Z,14.7924
2024-05-09T09:43:39.404Z,14.5440
2024-05-09T09:44:42.373Z,14.7860
2024-05-09T09:45:41.326Z,14.6248
2024-05-09T09:46:43.147Z,14.7167
2024-05-09T09:47:45.211Z,14.8117
2024-05-09T09:48:47.332Z,14.8134
2024-05-09T09:49:49.235Z,14.7946
2024-05-09T09:50:51.190Z,15.0237
2024-05-09T09:51:53.137Z,15.0261
2024-05-09T09:52:54.972Z,14.9465
2024-05-09T09:53:56.766Z,14.7697
2024-05-09T09:54:56.918Z,14.9892
2024-05-09T09:55:58.652Z,16.0306
2024-05-09T09:57:00.452Z,15.9188
2024-05-09T09:58:02.461Z,15.8004
2024-05-09T09:59:04.281Z,15.6178
2024-05-09T10:00:09.571Z,15.6319
2024-05-09T10:01:08.829Z,15.9400
2024-05-09T10:02:10.994Z,15.8495
2024-05-09T10:03:13.314Z,16.0864
2024-05-09T10:04:15.309Z,15.8661
2024-05-09T10:05:17.222Z,16.1892
2024-05-09T10:06:19.118Z,15.6186
2024-05-09T10:07:21.187Z,15.9358
2024-05-09T10:08:23.119Z,16.5722
2024-05-09T10:09:25.036Z,16.9298
2024-05-09T10:10:31.728Z,15.9783
2024-05-09T10:11:29.534Z,15.9038
2024-05-09T10:12:31.554Z,16.0154
2024-05-09T10:13:33.450Z,15.9311
2024-05-09T10:14:35.396Z,16.1196
2024-05-09T10:15:37.429Z,15.8113
2024-05-09T10:16:39.234Z,16.3172
2024-05-09T10:17:41.296Z,16.4624
2024-05-09T10:18:43.570Z,15.6702
2024-05-09T10:19:45.798Z,15.9147
2024-05-09T10:20:47.675Z,15.8294
2024-05-09T10:21:49.737Z,15.8349
2024-05-09T10:22:51.740Z,15.6345
2024-05-09T10:23:53.806Z,15.9983
2024-05-09T10:24:55.740Z,16.3324
2024-05-09T10:25:57.584Z,16.2269
2024-05-09T10:26:59.438Z,16.5487
2024-05-09T10:28:01.480Z,16.6487
2024-05-09T10:29:03.584Z,17.5981
2024-05-09T10:30:11.504Z,16.8105
2024-05-09T10:31:07.964Z,17.2655
2024-05-09T10:32:09.958Z,17.0338
2024-05-09T10:33:12.180Z,16.7387
2024-05-09T10:34:14.289Z,16.5692
2024-05-09T10:35:16.284Z,16.2928
2024-05-09T10:36:18.173Z,15.9523
2024-05-09T10:37:20.280Z,15.8739
2024-05-09T10:38:22.124Z,15.6825
2024-05-09T10:39:24.053Z,15.5975
2024-05-09T10:40:31.096Z,15.4567
2024-05-09T10:41:28.396Z,16.0238
2024-05-09T10:42:30.308Z,15.8212
2024-05-09T10:43:32.420Z,15.8635
2024-05-09T10:44:34.424Z,15.4440
2024-05-09T10:45:36.467Z,15.3215
2024-05-09T10:46:38.298Z,15.2318
2024-05-09T10:47:40.324Z,15.1096
2024-05-09T10:48:42.562Z,15.2253
2024-05-09T10:49:44.564Z,15.3657
2024-05-09T10:50:46.399Z,15.5638
2024-05-09T10:51:48.380Z,15.7121
2024-05-09T10:52:50.463Z,15.5981
2024-05-09T10:53:52.298Z,15.7325
2024-05-09T10:54:54.482Z,15.8192
2024-05-09T10:55:56.402Z,16.2752
2024-05-09T10:56:58.199Z,16.4332
2024-05-09T10:58:00.333Z,16.4398
2024-05-09T10:59:02.296Z,17.3637
2024-05-09T11:00:06.307Z,17.4568
2024-05-09T11:01:06.662Z,16.9978
2024-05-09T11:02:06.752Z,16.8910
2024-05-09T11:03:08.797Z,17.0998
2024-05-09T11:04:10.775Z,17.4059
2024-05-09T11:05:12.941Z,17.1646
2024-05-09T11:06:14.905Z,17.4294
2024-05-09T11:07:17.076Z,17.4813
2024-05-09T11:08:18.923Z,17.4960
2024-05-09T11:09:20.867Z,17.0942
2024-05-09T11:10:55.334Z,16.6281
2024-05-09T11:11:57.365Z,17.4676
2024-05-09T11:12:59.445Z,16.8452
2024-05-09T11:14:01.295Z,17.3290
2024-05-09T11:15:03.240Z,16.9914
2024-05-09T11:16:05.361Z,16.4468
2024-05-09T11:17:07.430Z,16.3924
2024-05-09T11:18:09.319Z,16.5621
2024-05-09T11:19:11.276Z,16.9207
2024-05-09T11:20:19.660Z,16.9040
2024-05-09T11:21:15.712Z,17.1416
2024-05-09T11:22:17.769Z,17.3921
2024-05-09T11:23:19.717Z,17.2519
2024-05-09T11:24:21.525Z,17.3062
2024-05-09T11:25:23.489Z,17.0315
2024-05-09T11:26:25.605Z,17.5521
2024-05-09T11:27:27.465Z,17.3791
2024-05-09T11:28:29.273Z,17.4696
2024-05-09T11:29:31.103Z,17.1456
2024-05-09T11:30:32.917Z,16.6846
2024-05-09T11:31:35.019Z,16.6502
2024-05-09T11:32:37.066Z,16.8294
2024-05-09T11:33:39.403Z,16.3879
2024-05-09T11:34:41.547Z,16.9328
2024-05-09T11:35:43.543Z,16.8750
2024-05-09T11:36:45.589Z,16.9010
2024-05-09T11:37:47.414Z,16.9968
2024-05-09T11:38:49.519Z,16.7855
2024-05-09T11:39:51.553Z,16.5902
2024-05-09T11:40:53.428Z,16.5201
2024-05-09T11:41:55.409Z,17.0867
2024-05-09T11:42:57.347Z,17.3550
2024-05-09T11:43:59.197Z,17.6313
2024-05-09T11:45:01.313Z,17.7657
2024-05-09T11:46:03.783Z,17.6917
2024-05-09T11:47:03.573Z,16.7032
2024-05-09T11:48:05.707Z,17.1605
2024-05-09T11:49:07.885Z,17.1763
2024-05-09T11:50:15.999Z,17.0260
2024-05-09T11:51:11.904Z,16.9120
2024-05-09T11:52:13.991Z,16.8222
2024-05-09T11:53:16.054Z,16.3165
2024-05-09T11:54:17.860Z,16.6374
2024-05-09T11:55:19.903Z,16.3066
2024-05-09T11:56:22.010Z,16.0112
2024-05-09T11:57:23.957Z,16.0792
2024-05-09T11:58:25.796Z,15.8763
2024-05-09T11:59:27.618Z,16.3606
2024-05-09T12:00:36.513Z,16.3490
2024-05-09T12:01:32.385Z,16.6455
2024-05-09T12:02:34.414Z,16.8983
2024-05-09T12:03:36.628Z,16.9863
2024-05-09T12:04:38.785Z,16.8505
2024-05-09T12:05:41.065Z,16.4389
2024-05-09T12:06:43.222Z,16.5402
2024-05-09T12:07:45.160Z,16.4348
2024-05-09T12:08:46.956Z,16.7747
2024-05-09T12:09:48.929Z,17.3988
2024-05-09T12:10:50.885Z,18.2413
2024-05-09T12:11:53.131Z,18.1638
2024-05-09T12:12:55.278Z,18.1340
2024-05-09T12:13:57.329Z,17.7322
2024-05-09T12:14:59.291Z,16.8976
2024-05-09T12:16:01.260Z,17.0634
2024-05-09T12:17:03.427Z,17.2161
2024-05-09T12:18:05.505Z,17.3723
2024-05-09T12:19:07.588Z,17.3443
2024-05-09T12:20:17.425Z,17.4050
2024-05-09T12:21:11.776Z,17.2006
2024-05-09T12:22:13.719Z,17.5648
2024-05-09T12:23:15.644Z,17.5433
2024-05-09T12:24:18.531Z,17.2327
2024-05-09T12:25:18.113Z,17.9787
2024-05-09T12:26:20.028Z,17.5789
2024-05-09T12:27:22.167Z,17.6653
2024-05-09T12:28:24.168Z,17.7924
2024-05-09T12:29:26.199Z,18.2532
2024-05-09T12:30:35.771Z,18.2897
2024-05-09T12:31:30.577Z,18.1760
2024-05-09T12:32:32.657Z,18.4496
2024-05-09T12:33:34.729Z,17.8610
2024-05-09T12:34:36.694Z,17.7087
2024-05-09T12:35:38.785Z,18.0679
2024-05-09T12:36:40.917Z,17.6797
2024-05-09T12:37:42.876Z,18.0306
2024-05-09T12:38:44.672Z,18.4454